Time;durP1;ratioP1;P1;durP2;ratioP2;P2;SDS_P1;SDS_P2;PMS_P1;PMS_P2;Temp;Humidity;BMP_temperature;BMP_pressure;BME280_temperature;BME280_humidity;BME280_pressure;Samples;Min_cycle;Max_cycle;Signal;HPM_P1;HPM_P2
2022/09/26 00:00:40;;;;;;;;;;;;;;;21.19;58.56;98123.94;2074090;28;19952;-82
2022/09/26 00:01:41;;;;;;;;;;;;;;;21.18;58.64;98120.44;2071926;28;19921;-83
2022/09/26 00:02:43;;;;;;;;;;;;;;;21.17;58.62;98115.25;2073223;28;21682;-82
2022/09/26 00:03:44;;;;;;;;;;;;;;;21.18;58.57;98117.72;2075450;28;20036;-79
2022/09/26 00:04:46;;;;;;;;;;;;;;;21.18;58.84;98112.34;2075273;28;20032;-83
2022/09/26 00:05:46;;;;;;;;;;;;;;;21.18;58.82;98117.72;2076476;28;19921;-80
2022/09/26 00:06:48;;;;;;;;;;;;;;;21.17;58.94;98117.94;2074477;28;19925;-81
2022/09/26 00:07:49;;;;;;;;;;;;;;;21.17;58.66;98117.94;2074529;28;19921;-80
2022/09/26 00:08:51;;;;;;;;;;;;;;;21.18;58.86;98116.91;2073380;28;19974;-82
2022/09/26 00:09:52;;;;;;;;;;;;;;;21.17;58.93;98121.50;2076762;28;19950;-81
2022/09/26 00:10:56;;;;;;;;;;;;;;;21.18;58.67;98122.31;2067861;28;19982;-81
2022/09/26 00:11:58;;;;;;;;;;;;;;;21.17;58.74;98118.78;2076464;28;19932;-80
2022/09/26 00:13:00;;;;;;;;;;;;;;;21.17;58.73;98120.66;2074145;28;19929;-81
2022/09/26 00:14:01;;;;;;;;;;;;;;;21.17;58.79;98118.78;2075008;28;19964;-80
2022/09/26 00:15:03;;;;;;;;;;;;;;;21.17;58.78;98117.94;2074447;28;19960;-81
2022/09/26 00:16:04;;;;;;;;;;;;;;;21.17;58.76;98124.19;2076285;28;19925;-79
2022/09/26 00:17:06;;;;;;;;;;;;;;;21.16;58.72;98125.22;2074541;28;19945;-81
2022/09/26 00:18:06;;;;;;;;;;;;;;;21.18;58.96;98119.63;2076311;28;19929;-80
2022/09/26 00:19:08;;;;;;;;;;;;;;;21.17;58.79;98126.03;2075022;28;20273;-78
2022/09/26 00:20:08;;;;;;;;;;;;;;;21.16;58.75;98122.53;2075157;28;19979;-80
2022/09/26 00:21:11;;;;;;;;;;;;;;;21.17;58.71;98123.34;2075322;28;19929;-81
2022/09/26 00:22:12;;;;;;;;;;;;;;;21.16;58.84;98121.72;2075810;28;20039;-81
2022/09/26 00:23:13;;;;;;;;;;;;;;;21.18;58.83;98122.31;2074191;28;20365;-83
2022/09/26 00:24:15;;;;;;;;;;;;;;;21.16;58.62;98119.84;2075831;28;19920;-80
2022/09/26 00:25:16;;;;;;;;;;;;;;;21.17;58.88;98118.78;2068145;28;19929;-82
2022/09/26 00:26:18;;;;;;;;;;;;;;;21.16;58.96;98122.53;2066804;28;19936;-81
2022/09/26 00:27:21;;;;;;;;;;;;;;;21.16;58.58;98125.22;2074274;28;20097;-78
2022/09/26 00:28:22;;;;;;;;;;;;;;;21.15;58.59;98115.50;2074511;28;19928;-80
2022/09/26 00:29:23;;;;;;;;;;;;;;;21.15;58.51;98118.19;2075612;28;20091;-81
2022/09/26 00:30:24;;;;;;;;;;;;;;;21.16;58.77;98117.13;2072869;28;19960;-80
2022/09/26 00:31:25;;;;;;;;;;;;;;;21.15;58.71;98118.19;2074837;28;19925;-80
2022/09/26 00:32:27;;;;;;;;;;;;;;;21.13;58.79;98117.59;2074511;28;20011;-81
2022/09/26 00:33:28;;;;;;;;;;;;;;;21.16;58.71;98119.00;2074044;28;19929;-82
2022/09/26 00:34:29;;;;;;;;;;;;;;;21.15;58.76;98120.91;2072759;28;19925;-81
2022/09/26 00:35:30;;;;;;;;;;;;;;;21.14;58.51;98121.94;2074169;28;19921;-80
2022/09/26 00:36:32;;;;;;;;;;;;;;;21.15;58.69;98120.91;2074579;28;20015;-80
2022/09/26 00:37:32;;;;;;;;;;;;;;;21.15;58.71;98126.28;2075120;28;20491;-81
2022/09/26 00:38:34;;;;;;;;;;;;;;;21.15;58.60;98125.47;2076075;28;19929;-81
2022/09/26 00:39:35;;;;;;;;;;;;;;;21.16;58.76;98122.53;2073567;28;20089;-80
2022/09/26 00:40:36;;;;;;;;;;;;;;;21.15;58.73;98110.09;2075163;28;19963;-80
2022/09/26 00:41:38;;;;;;;;;;;;;;;21.15;58.75;98120.09;2075369;28;19921;-80
2022/09/26 00:42:40;;;;;;;;;;;;;;;21.14;58.78;98113.84;2071266;28;19940;-79
2022/09/26 00:43:43;;;;;;;;;;;;;;;21.14;58.68;98115.72;2071006;28;19932;-81
2022/09/26 00:44:44;;;;;;;;;;;;;;;21.14;58.70;98113.03;2073134;28;20441;-80
2022/09/26 00:45:46;;;;;;;;;;;;;;;21.14;58.65;98113.03;2073615;28;20540;-81
2022/09/26 00:46:47;;;;;;;;;;;;;;;21.14;58.87;98105.75;2072717;28;20019;-82
2022/09/26 00:47:50;;;;;;;;;;;;;;;21.15;58.70;98106.59;2075213;28;19928;-79
2022/09/26 00:48:53;;;;;;;;;;;;;;;21.16;58.88;98110.94;2074272;28;19921;-79
2022/09/26 00:49:57;;;;;;;;;;;;;;;21.13;58.84;98106.81;2072618;28;19947;-82
2022/09/26 00:50:58;;;;;;;;;;;;;;;21.13;58.70;98100.59;2073036;28;19990;-82
2022/09/26 00:52:02;;;;;;;;;;;;;;;21.14;58.81;98102.25;2076546;28;20340;-77
2022/09/26 00:53:05;;;;;;;;;;;;;;;21.14;58.70;98100.34;2074295;28;19933;-81
2022/09/26 00:54:10;;;;;;;;;;;;;;;21.14;58.52;98099.53;2073510;28;19925;-80
2022/09/26 00:55:13;;;;;;;;;;;;;;;21.14;58.70;98100.34;2075977;28;19935;-81
2022/09/26 00:56:17;;;;;;;;;;;;;;;21.13;58.79;98101.41;2073731;28;20470;-82
2022/09/26 00:57:20;;;;;;;;;;;;;;;21.13;58.61;98096.03;2074759;28;19964;-81
2022/09/26 00:58:26;;;;;;;;;;;;;;;21.14;58.79;98094.97;2075473;28;19929;-84
2022/09/26 00:59:28;;;;;;;;;;;;;;;21.14;58.53;98097.66;2073594;28;20016;-80
2022/09/26 01:00:29;;;;;;;;;;;;;;;21.13;58.74;98093.34;2071742;28;19921;-81
2022/09/26 01:01:30;;;;;;;;;;;;;;;21.13;58.75;98097.91;2073659;28;20323;-81
2022/09/26 01:02:32;;;;;;;;;;;;;;;21.12;58.69;98089.00;2074183;28;19921;-80
2022/09/26 01:03:34;;;;;;;;;;;;;;;21.13;58.83;98101.41;2073865;28;19972;-81
2022/09/26 01:04:37;;;;;;;;;;;;;;;21.12;58.95;98089.00;2073626;28;20498;-79
2022/09/26 01:05:38;;;;;;;;;;;;;;;21.14;58.93;98092.28;2075924;28;19929;-80
2022/09/26 01:06:40;;;;;;;;;;;;;;;21.12;58.73;98094.41;2074196;28;19925;-79
2022/09/26 01:07:41;;;;;;;;;;;;;;;21.11;58.57;98095.44;2074977;28;19932;-81
2022/09/26 01:08:45;;;;;;;;;;;;;;;21.11;58.77;98092.75;2075330;28;19932;-83
2022/09/26 01:09:46;;;;;;;;;;;;;;;21.12;58.65;98089.00;2073638;28;20463;-80
2022/09/26 01:10:48;;;;;;;;;;;;;;;21.12;58.62;98088.19;2074915;28;20004;-80
2022/09/26 01:11:49;;;;;;;;;;;;;;;21.11;58.74;98084.66;2074849;28;20070;-80
2022/09/26 01:12:51;;;;;;;;;;;;;;;21.12;58.89;98090.88;2075214;28;20390;-81
2022/09/26 01:13:53;;;;;;;;;;;;;;;21.11;58.89;98073.03;2073675;28;20358;-80
2022/09/26 01:14:55;;;;;;;;;;;;;;;21.13;58.71;98089.81;2073909;28;19975;-81
2022/09/26 01:15:56;;;;;;;;;;;;;;;21.12;58.70;98085.50;2077440;28;20303;-79
2022/09/26 01:16:57;;;;;;;;;;;;;;;21.12;58.64;98080.91;2076662;28;19921;-83
2022/09/26 01:17:57;;;;;;;;;;;;;;;21.11;58.76;98081.13;2070953;28;20761;-81
2022/09/26 01:18:59;;;;;;;;;;;;;;;21.11;58.76;98086.53;2075696;28;20211;-80
2022/09/26 01:20:06;;;;;;;;;;;;;;;21.12;58.66;98086.31;2075072;28;19926;-78
2022/09/26 01:21:14;;;;;;;;;;;;;;;21.11;58.55;98092.75;2075616;28;19929;-81
2022/09/26 01:22:31;;;;;;;;;;;;;;;21.11;58.56;98081.94;2074943;28;19975;-79
2022/09/26 01:23:57;;;;;;;;;;;;;;;21.12;58.78;98075.53;2074049;28;19925;-80
2022/09/26 01:25:07;;;;;;;;;;;;;;;21.11;58.54;98076.56;2075153;28;19921;-80
2022/09/26 01:26:39;;;;;;;;;;;;;;;21.12;58.74;98069.31;2075146;28;19925;-79
2022/09/26 01:27:46;;;;;;;;;;;;;;;21.11;58.77;98060.38;2077185;28;20515;-79
2022/09/26 01:28:58;;;;;;;;;;;;;;;21.11;58.77;98057.69;2074642;28;20303;-81
2022/09/26 01:30:06;;;;;;;;;;;;;;;21.10;58.66;98052.53;2074319;28;19989;-80
2022/09/26 01:31:13;;;;;;;;;;;;;;;21.10;58.59;98047.97;2072970;28;19922;-80
2022/09/26 01:33:48;;;;;;;;;;;;;;;21.10;58.75;98057.94;2073756;28;20011;-81
2022/09/26 01:34:53;;;;;;;;;;;;;;;21.09;58.76;98051.72;2074805;28;19925;-81
2022/09/26 01:36:01;;;;;;;;;;;;;;;21.09;58.86;98062.50;2074399;28;20019;-81
2022/09/26 01:37:07;;;;;;;;;;;;;;;21.10;58.74;98066.03;2064396;28;20027;-80
2022/09/26 01:38:11;;;;;;;;;;;;;;;21.10;58.78;98064.13;2066803;28;19925;-81
2022/09/26 01:39:27;;;;;;;;;;;;;;;21.11;58.85;98064.97;2067587;28;19972;-79
2022/09/26 01:40:30;;;;;;;;;;;;;;;21.10;58.76;98063.31;2065589;28;19929;-77
2022/09/26 01:41:39;;;;;;;;;;;;;;;21.09;58.66;98065.22;2067806;28;20356;-78
2022/09/26 01:42:45;;;;;;;;;;;;;;;21.09;58.95;98067.91;2065541;28;19921;-80
2022/09/26 01:43:49;;;;;;;;;;;;;;;21.09;58.85;98067.06;2074944;28;19925;-81
2022/09/26 01:44:53;;;;;;;;;;;;;;;21.08;58.94;98074.34;2074127;28;20682;-81
2022/09/26 01:45:59;;;;;;;;;;;;;;;21.09;58.67;98073.28;2075153;28;19929;-82
2022/09/26 01:47:04;;;;;;;;;;;;;;;21.09;58.69;98072.44;2075711;28;20292;-81
2022/09/26 01:48:09;;;;;;;;;;;;;;;21.09;58.78;98065.22;2075016;28;19925;-81
2022/09/26 01:49:13;;;;;;;;;;;;;;;21.09;58.86;98065.22;2073760;28;19921;-80
2022/09/26 01:50:19;;;;;;;;;;;;;;;21.10;58.64;98060.63;2074581;28;19971;-81
2022/09/26 01:51:21;;;;;;;;;;;;;;;21.09;58.53;98057.13;2073522;28;19929;-79
2022/09/26 01:52:28;;;;;;;;;;;;;;;21.08;58.47;98060.84;2074325;28;19929;-80
2022/09/26 01:53:32;;;;;;;;;;;;;;;21.08;58.63;98058.16;2073253;28;19929;-82
2022/09/26 01:54:37;;;;;;;;;;;;;;;21.08;58.51;98066.25;2075477;28;24269;-81
2022/09/26 01:55:39;;;;;;;;;;;;;;;21.08;58.65;98060.84;2067974;28;19975;-79
2022/09/26 01:56:42;;;;;;;;;;;;;;;21.08;58.75;98060.84;2066202;28;19928;-79
2022/09/26 01:57:46;;;;;;;;;;;;;;;21.09;58.82;98065.22;2074905;28;20320;-78
2022/09/26 01:58:50;;;;;;;;;;;;;;;21.09;58.77;98067.06;2076482;28;19921;-79
2022/09/26 01:59:53;;;;;;;;;;;;;;;21.08;58.59;98060.03;2067889;28;25709;-81
2022/09/26 02:00:59;;;;;;;;;;;;;;;21.08;58.67;98060.84;2075607;28;19969;-81
2022/09/26 02:02:02;;;;;;;;;;;;;;;21.07;58.58;98063.78;2075795;28;19954;-81
2022/09/26 02:03:06;;;;;;;;;;;;;;;21.07;58.66;98059.22;2078599;28;20012;-82
2022/09/26 02:04:08;;;;;;;;;;;;;;;21.06;58.90;98057.59;2075455;28;19925;-79
2022/09/26 02:05:13;;;;;;;;;;;;;;;21.07;58.60;98058.41;2073736;28;20065;-80
2022/09/26 02:06:15;;;;;;;;;;;;;;;21.07;58.77;98059.22;2074430;28;19970;-81
2022/09/26 02:07:18;;;;;;;;;;;;;;;21.07;58.53;98056.53;2074299;28;20002;-82
2022/09/26 02:08:23;;;;;;;;;;;;;;;21.07;58.54;98050.31;2074461;28;20024;-81
2022/09/26 02:09:26;;;;;;;;;;;;;;;21.09;58.60;98050.88;2075024;28;20449;-82
2022/09/26 02:10:30;;;;;;;;;;;;;;;21.08;58.69;98049.25;2072957;28;20040;-79
2022/09/26 02:11:31;;;;;;;;;;;;;;;21.06;58.69;98041.41;2076881;28;20315;-81
2022/09/26 02:12:35;;;;;;;;;;;;;;;21.06;58.69;98038.72;2066531;28;20544;-81
2022/09/26 02:13:39;;;;;;;;;;;;;;;21.07;58.71;98037.66;2065919;28;19928;-80
2022/09/26 02:14:42;;;;;;;;;;;;;;;21.07;58.62;98034.13;2067265;28;19937;-81
2022/09/26 02:15:46;;;;;;;;;;;;;;;21.06;58.70;98030.63;2058645;28;19925;-81
2022/09/26 02:16:49;;;;;;;;;;;;;;;21.07;58.76;98021.47;2066894;28;20000;-80
2022/09/26 02:17:54;;;;;;;;;;;;;;;21.07;58.46;98029.56;2067954;28;19982;-81
2022/09/26 02:18:56;;;;;;;;;;;;;;;21.06;58.77;98030.63;2066467;28;19930;-81
2022/09/26 02:19:59;;;;;;;;;;;;;;;21.06;58.77;98025.22;2069422;28;20347;-82
2022/09/26 02:21:00;;;;;;;;;;;;;;;21.05;58.88;98023.56;2072614;28;20402;-81
2022/09/26 02:22:02;;;;;;;;;;;;;;;21.05;58.95;98023.56;2075137;28;20707;-80
2022/09/26 02:23:03;;;;;;;;;;;;;;;21.05;58.54;98025.44;2075752;28;19929;-80
2022/09/26 02:24:05;;;;;;;;;;;;;;;21.04;58.56;98021.94;2073859;28;19983;-78
2022/09/26 02:25:06;;;;;;;;;;;;;;;21.05;58.72;98022.75;2076655;28;19932;-81
2022/09/26 02:26:08;;;;;;;;;;;;;;;21.07;58.64;98023.34;2073124;28;19925;-79
2022/09/26 02:27:08;;;;;;;;;;;;;;;21.05;58.83;98026.28;2074989;28;19925;-79
2022/09/26 02:28:10;;;;;;;;;;;;;;;21.05;58.75;98014.66;2074845;28;20384;-81
2022/09/26 02:29:11;;;;;;;;;;;;;;;21.05;58.80;98020.88;2076062;28;19975;-80
2022/09/26 02:30:13;;;;;;;;;;;;;;;21.05;58.57;98020.06;2074482;28;19935;-80
2022/09/26 02:31:19;;;;;;;;;;;;;;;21.04;58.80;98018.44;2072258;28;19929;-83
2022/09/26 02:32:24;;;;;;;;;;;;;;;21.05;58.69;98020.88;2072149;28;19926;-80
2022/09/26 02:33:25;;;;;;;;;;;;;;;21.05;58.69;98020.06;2073990;28;20375;-79
2022/09/26 02:34:26;;;;;;;;;;;;;;;21.04;58.71;98016.53;2075233;28;19948;-80
2022/09/26 02:36:47;;;;;;;;;;;;;;;21.05;58.62;98025.44;2072558;28;20388;-81
2022/09/26 02:37:48;;;;;;;;;;;;;;;21.05;58.57;98018.19;2073892;28;20388;-80
2022/09/26 02:38:50;;;;;;;;;;;;;;;21.04;58.70;98015.72;2073022;28;19925;-80
2022/09/26 02:39:51;;;;;;;;;;;;;;;21.03;58.66;98017.59;2073530;28;19960;-81
2022/09/26 02:40:56;;;;;;;;;;;;;;;21.04;58.71;98019.25;2073772;28;19991;-79
2022/09/26 02:42:02;;;;;;;;;;;;;;;21.05;58.69;98017.38;2076079;28;19971;-81
2022/09/26 02:43:12;;;;;;;;;;;;;;;21.05;58.76;98020.88;2073385;28;19929;-81
2022/09/26 02:44:22;;;;;;;;;;;;;;;21.05;58.73;98017.38;2074045;28;20323;-80
2022/09/26 02:45:26;;;;;;;;;;;;;;;21.03;58.60;98020.28;2072687;28;20070;-79
2022/09/26 02:46:38;;;;;;;;;;;;;;;21.03;58.87;98009.50;2069784;28;19974;-82
2022/09/26 02:47:53;;;;;;;;;;;;;;;21.05;58.69;98014.66;2074918;28;19952;-80
2022/09/26 02:49:04;;;;;;;;;;;;;;;21.04;58.92;98019.25;2063541;28;20482;-80
2022/09/26 02:50:13;;;;;;;;;;;;;;;21.04;58.74;98023.81;2072127;28;19929;-79
2022/09/26 02:51:23;;;;;;;;;;;;;;;21.03;58.80;98027.56;2076804;28;19994;-82
2022/09/26 02:52:30;;;;;;;;;;;;;;;21.04;58.90;98021.13;2076006;28;19930;-83
2022/09/26 02:53:39;;;;;;;;;;;;;;;21.04;58.64;98023.81;2076038;28;19983;-82
2022/09/26 02:54:45;;;;;;;;;;;;;;;21.05;58.53;98025.44;2074690;28;19922;-81
2022/09/26 02:55:50;;;;;;;;;;;;;;;21.03;58.74;98031.06;2075013;28;19979;-81
2022/09/26 02:56:59;;;;;;;;;;;;;;;21.04;58.74;98029.22;2074793;28;19928;-82
2022/09/26 02:58:06;;;;;;;;;;;;;;;21.04;58.69;98027.34;2074902;28;19982;-78
2022/09/26 02:59:09;;;;;;;;;;;;;;;21.04;58.79;98027.34;2077240;28;19980;-79
2022/09/26 03:00:15;;;;;;;;;;;;;;;21.03;58.84;98031.06;2074375;28;19921;-79
2022/09/26 03:01:18;;;;;;;;;;;;;;;21.03;58.76;98025.66;2074977;28;20110;-81
2022/09/26 03:02:21;;;;;;;;;;;;;;;21.04;58.94;98027.34;2077367;28;20011;-81
2022/09/26 03:03:25;;;;;;;;;;;;;;;21.02;58.72;98024.03;2075550;28;19921;-81
2022/09/26 03:04:31;;;;;;;;;;;;;;;21.02;58.87;98032.13;2075952;28;19920;-80
2022/09/26 03:05:33;;;;;;;;;;;;;;;21.03;58.59;98025.66;2075053;28;19920;-80
2022/09/26 03:06:37;;;;;;;;;;;;;;;21.03;58.66;98028.38;2065558;28;19929;-82
2022/09/26 03:07:41;;;;;;;;;;;;;;;21.03;58.77;98022.16;2072710;28;19982;-79
2022/09/26 03:08:46;;;;;;;;;;;;;;;21.03;58.77;98022.97;2073225;28;21365;-81
2022/09/26 03:09:48;;;;;;;;;;;;;;;21.03;58.88;98019.47;2074042;28;19969;-81
2022/09/26 03:10:50;;;;;;;;;;;;;;;21.03;58.82;98014.88;2075833;28;19925;-80
2022/09/26 03:11:51;;;;;;;;;;;;;;;21.02;58.79;98017.84;2075290;28;19921;-82
2022/09/26 03:12:54;;;;;;;;;;;;;;;21.03;58.52;98008.69;2076176;28;20414;-81
2022/09/26 03:13:58;;;;;;;;;;;;;;;21.01;58.76;98017.03;2076978;28;19971;-79
2022/09/26 03:15:00;;;;;;;;;;;;;;;21.02;58.80;98007.88;2075353;28;19922;-80
2022/09/26 03:16:02;;;;;;;;;;;;;;;21.03;58.50;98008.69;2075574;28;19925;-80
2022/09/26 03:17:03;;;;;;;;;;;;;;;21.01;58.88;98011.63;2074484;28;19925;-83
2022/09/26 03:18:06;;;;;;;;;;;;;;;21.02;58.91;97994.38;2074131;28;19972;-83
2022/09/26 03:19:10;;;;;;;;;;;;;;;21.02;58.74;97989.00;2074896;28;19956;-81
2022/09/26 03:20:13;;;;;;;;;;;;;;;21.02;58.55;97996.28;2074012;28;19920;-82
2022/09/26 03:21:14;;;;;;;;;;;;;;;21.01;58.70;98006.22;2073862;28;19928;-79
2022/09/26 03:22:15;;;;;;;;;;;;;;;21.01;58.82;98008.13;2075815;28;20515;-79
2022/09/26 03:23:19;;;;;;;;;;;;;;;21.01;58.61;98003.53;2074300;28;20450;-80
2022/09/26 03:24:21;;;;;;;;;;;;;;;21.00;58.68;97991.09;2075429;28;20008;-79
2022/09/26 03:25:23;;;;;;;;;;;;;;;21.00;58.71;97993.78;2073350;28;19974;-81
2022/09/26 03:26:26;;;;;;;;;;;;;;;21.02;58.55;97980.09;2075816;28;20023;-82
2022/09/26 03:27:26;;;;;;;;;;;;;;;21.01;58.78;97981.16;2073042;28;19967;-81
2022/09/26 03:28:28;;;;;;;;;;;;;;;21.00;58.81;97976.81;2075058;28;19929;-81
2022/09/26 03:29:30;;;;;;;;;;;;;;;21.02;58.74;97980.09;2073994;28;20382;-78
2022/09/26 03:30:32;;;;;;;;;;;;;;;21.01;58.75;97968.50;2074369;28;19925;-80
2022/09/26 03:31:32;;;;;;;;;;;;;;;21.01;58.73;97971.19;2068804;28;20003;-80
2022/09/26 03:32:34;;;;;;;;;;;;;;;21.01;58.86;97971.19;2067360;28;19926;-81
2022/09/26 03:33:34;;;;;;;;;;;;;;;21.01;58.77;97971.19;2068169;28;19949;-80
2022/09/26 03:34:38;;;;;;;;;;;;;;;21.01;58.44;97967.69;2066408;28;19925;-79
2022/09/26 03:35:39;;;;;;;;;;;;;;;21.02;58.64;97963.91;2066045;28;19921;-80
2022/09/26 03:36:40;;;;;;;;;;;;;;;21.01;58.84;97957.72;2074832;28;19925;-80
2022/09/26 03:37:41;;;;;;;;;;;;;;;21.01;58.92;97964.97;2074577;28;19972;-82
2022/09/26 03:38:42;;;;;;;;;;;;;;;21.02;58.79;97963.91;2076994;28;19929;-79
2022/09/26 03:39:43;;;;;;;;;;;;;;;21.01;58.74;97963.09;2071316;28;20510;-79
2022/09/26 03:40:45;;;;;;;;;;;;;;;21.01;58.54;97956.91;2074919;28;19956;-79
2022/09/26 03:41:45;;;;;;;;;;;;;;;21.01;58.93;97963.09;2074832;28;19921;-79
2022/09/26 03:42:47;;;;;;;;;;;;;;;21.00;58.83;97971.41;2074225;28;20117;-80
2022/09/26 03:43:48;;;;;;;;;;;;;;;21.00;58.74;97966.00;2075780;28;20364;-81
2022/09/26 03:44:49;;;;;;;;;;;;;;;21.00;58.94;97972.22;2074475;28;19928;-81
2022/09/26 03:45:50;;;;;;;;;;;;;;;21.01;58.79;97973.88;2073693;28;19925;-78
2022/09/26 03:46:52;;;;;;;;;;;;;;;21.00;58.87;97976.81;2076476;28;19967;-80
2022/09/26 03:47:55;;;;;;;;;;;;;;;21.00;58.63;97977.63;2074081;28;19951;-79
2022/09/26 03:48:55;;;;;;;;;;;;;;;20.99;58.62;97973.28;2073462;28;19987;-81
2022/09/26 03:49:58;;;;;;;;;;;;;;;21.00;58.57;97974.09;2075980;28;20003;-80
2022/09/26 03:51:02;;;;;;;;;;;;;;;20.99;58.86;97973.28;2074864;28;19936;-81
2022/09/26 03:52:04;;;;;;;;;;;;;;;20.99;58.84;97981.38;2073892;28;19933;-81
2022/09/26 03:53:05;;;;;;;;;;;;;;;21.00;58.73;97974.09;2076498;28;19929;-80
2022/09/26 03:54:06;;;;;;;;;;;;;;;20.99;58.86;97976.00;2074184;28;20391;-79
2022/09/26 03:55:07;;;;;;;;;;;;;;;20.98;58.67;97974.34;2075307;28;20421;-82
2022/09/26 03:56:09;;;;;;;;;;;;;;;20.98;58.67;97967.09;2075378;28;19929;-80
2022/09/26 03:57:11;;;;;;;;;;;;;;;20.98;58.72;97966.28;2074831;28;19925;-81
2022/09/26 03:58:13;;;;;;;;;;;;;;;21.00;58.76;97963.31;2074908;28;19929;-80
2022/09/26 03:59:13;;;;;;;;;;;;;;;20.98;58.56;97968.97;2076134;28;19978;-78
2022/09/26 04:00:14;;;;;;;;;;;;;;;20.98;58.93;97963.56;2073536;28;19929;-81
2022/09/26 04:01:16;;;;;;;;;;;;;;;20.98;58.79;97963.56;2076755;28;19986;-79
2022/09/26 04:02:18;;;;;;;;;;;;;;;20.98;58.88;97967.09;2074635;28;19925;-80
2022/09/26 04:03:19;;;;;;;;;;;;;;;20.98;58.62;97967.09;2074967;28;19992;-79
2022/09/26 04:04:21;;;;;;;;;;;;;;;20.99;58.75;97962.50;2076225;28;19975;-80
2022/09/26 04:05:22;;;;;;;;;;;;;;;20.97;58.71;97964.59;2074591;28;19948;-79
2022/09/26 04:06:24;;;;;;;;;;;;;;;20.98;58.63;97958.19;2074594;28;19928;-78
2022/09/26 04:07:24;;;;;;;;;;;;;;;20.97;58.75;97960.03;2075980;28;19925;-81
2022/09/26 04:08:27;;;;;;;;;;;;;;;20.97;58.67;97956.53;2075255;28;20403;-78
2022/09/26 04:09:27;;;;;;;;;;;;;;;20.97;58.79;97961.91;2076099;28;20427;-78
2022/09/26 04:10:29;;;;;;;;;;;;;;;20.98;58.56;97958.19;2074497;28;20644;-80
2022/09/26 04:11:29;;;;;;;;;;;;;;;20.97;58.84;97964.59;2074585;28;20406;-80
2022/09/26 04:12:31;;;;;;;;;;;;;;;20.97;58.67;97967.31;2075241;28;20031;-80
2022/09/26 04:13:32;;;;;;;;;;;;;;;20.97;58.56;97964.59;2075356;28;19963;-81
2022/09/26 04:14:34;;;;;;;;;;;;;;;20.97;58.88;97967.31;2075039;28;19925;-80
2022/09/26 04:15:35;;;;;;;;;;;;;;;20.99;58.83;97967.91;2074683;28;20365;-80
2022/09/26 04:16:37;;;;;;;;;;;;;;;20.98;58.96;97969.78;2074173;28;19924;-80
2022/09/26 04:17:37;;;;;;;;;;;;;;;20.95;58.84;97975.66;2074851;28;19917;-81
2022/09/26 04:18:39;;;;;;;;;;;;;;;20.97;58.76;97967.31;2075728;28;20485;-81
2022/09/26 04:19:39;;;;;;;;;;;;;;;20.97;58.93;97967.31;2074451;28;20003;-81
2022/09/26 04:20:43;;;;;;;;;;;;;;;20.97;58.53;97972.69;2074326;28;19975;-79
2022/09/26 04:21:45;;;;;;;;;;;;;;;20.97;58.67;97970.00;2076179;28;19986;-80
2022/09/26 04:22:45;;;;;;;;;;;;;;;20.97;58.94;97968.13;2074837;28;19933;-80
2022/09/26 04:23:48;;;;;;;;;;;;;;;20.98;58.63;97963.56;2074012;28;19924;-80
2022/09/26 04:24:48;;;;;;;;;;;;;;;20.97;58.61;97973.50;2069022;28;20404;-80
2022/09/26 04:25:50;;;;;;;;;;;;;;;20.97;58.84;97967.31;2069072;28;19944;-80
2022/09/26 04:26:50;;;;;;;;;;;;;;;20.97;58.71;97967.31;2072219;28;19936;-79
2022/09/26 04:27:52;;;;;;;;;;;;;;;20.97;58.87;97967.31;2073479;28;20514;-79
2022/09/26 04:28:54;;;;;;;;;;;;;;;20.97;58.78;97972.69;2076888;28;19942;-79
2022/09/26 04:29:57;;;;;;;;;;;;;;;20.96;58.77;97965.69;2073263;28;20012;-78
2022/09/26 04:30:57;;;;;;;;;;;;;;;20.96;58.66;97968.38;2074394;28;19921;-78
2022/09/26 04:31:59;;;;;;;;;;;;;;;20.96;58.63;97971.88;2076189;28;19957;-80
2022/09/26 04:32:59;;;;;;;;;;;;;;;20.96;58.63;97966.50;2076717;28;20338;-78
2022/09/26 04:34:01;;;;;;;;;;;;;;;20.97;58.69;97972.69;2075475;28;19933;-81
2022/09/26 04:35:01;;;;;;;;;;;;;;;20.96;58.55;97969.19;2076488;28;20574;-84
2022/09/26 04:36:05;;;;;;;;;;;;;;;20.96;58.78;97973.75;2077885;28;19928;-81
2022/09/26 04:37:06;;;;;;;;;;;;;;;20.97;58.81;97978.09;2078348;28;20510;-80
2022/09/26 04:38:08;;;;;;;;;;;;;;;20.95;58.83;97975.66;2076312;28;19929;-81
2022/09/26 04:39:09;;;;;;;;;;;;;;;20.97;58.78;97970.00;2078478;28;20289;-80
2022/09/26 04:40:10;;;;;;;;;;;;;;;20.96;58.72;97971.88;2076083;28;20408;-79
2022/09/26 04:41:12;;;;;;;;;;;;;;;20.97;58.62;97964.59;2076863;28;19926;-80
2022/09/26 04:42:13;;;;;;;;;;;;;;;20.96;58.74;97974.56;2077327;28;19929;-79
2022/09/26 04:43:14;;;;;;;;;;;;;;;20.96;58.56;97973.75;2073713;28;20273;-79
2022/09/26 04:44:15;;;;;;;;;;;;;;;20.95;58.91;97972.13;2073230;28;20388;-78
2022/09/26 04:45:17;;;;;;;;;;;;;;;20.95;58.73;97972.13;2071678;28;19976;-78
2022/09/26 04:46:20;;;;;;;;;;;;;;;20.94;58.82;97968.59;2074363;28;19928;-79
2022/09/26 04:47:21;;;;;;;;;;;;;;;20.95;58.94;97966.75;2077860;28;19925;-81
2022/09/26 04:48:22;;;;;;;;;;;;;;;20.96;58.55;97960.28;2077776;28;19936;-78
2022/09/26 04:49:23;;;;;;;;;;;;;;;20.95;58.51;97961.34;2076852;28;20020;-79
2022/09/26 04:50:24;;;;;;;;;;;;;;;20.97;58.79;97956.53;2075902;28;19926;-79
2022/09/26 04:51:28;;;;;;;;;;;;;;;20.94;58.65;97952.41;2078754;28;19928;-80
2022/09/26 04:52:28;;;;;;;;;;;;;;;20.95;58.69;97947.88;2077090;28;19921;-79
2022/09/26 04:53:30;;;;;;;;;;;;;;;20.94;58.76;97949.72;2078331;28;19952;-79
2022/09/26 04:54:30;;;;;;;;;;;;;;;20.96;58.92;97946.81;2071773;28;19925;-81
2022/09/26 04:55:32;;;;;;;;;;;;;;;20.95;58.95;97945.19;2072417;28;20673;-80
2022/09/26 04:56:34;;;;;;;;;;;;;;;20.95;58.78;97940.59;2073534;28;20684;-79
2022/09/26 04:57:36;;;;;;;;;;;;;;;20.94;58.60;97946.22;2076006;28;19988;-81
2022/09/26 04:58:40;;;;;;;;;;;;;;;20.95;58.75;97945.19;2076858;28;19920;-79
2022/09/26 04:59:42;;;;;;;;;;;;;;;20.95;58.91;97950.56;2074412;28;19928;-81
2022/09/26 05:00:44;;;;;;;;;;;;;;;20.93;58.77;97956.19;2073810;28;19934;-81
2022/09/26 05:01:45;;;;;;;;;;;;;;;20.94;58.81;97951.59;2074421;28;20020;-81
2022/09/26 05:02:46;;;;;;;;;;;;;;;20.94;58.96;97954.31;2074345;28;19975;-81
2022/09/26 05:03:48;;;;;;;;;;;;;;;20.93;58.63;97950.78;2076601;28;19932;-80
2022/09/26 05:04:50;;;;;;;;;;;;;;;20.93;58.88;97952.66;2075946;28;20385;-81
2022/09/26 05:05:50;;;;;;;;;;;;;;;20.94;58.43;97952.41;2077038;28;19929;-80
2022/09/26 05:06:56;;;;;;;;;;;;;;;20.94;58.73;97957.00;2075874;28;19947;-79
2022/09/26 05:07:57;;;;;;;;;;;;;;;20.92;58.81;97949.16;2074874;28;19928;-80
2022/09/26 05:08:58;;;;;;;;;;;;;;;20.94;58.75;97941.63;2073880;28;20368;-78
2022/09/26 05:09:58;;;;;;;;;;;;;;;20.95;58.73;97945.19;2066623;28;20420;-79
2022/09/26 05:11:01;;;;;;;;;;;;;;;20.94;58.87;97944.34;2067806;28;19929;-79
2022/09/26 05:12:01;;;;;;;;;;;;;;;20.93;58.76;97937.31;2066897;28;20051;-80
2022/09/26 05:13:02;;;;;;;;;;;;;;;20.93;58.52;97936.50;2067765;28;20156;-81
2022/09/26 05:14:03;;;;;;;;;;;;;;;20.94;58.79;97940.81;2066706;28;20162;-79
2022/09/26 05:15:07;;;;;;;;;;;;;;;20.93;58.69;97934.63;2067050;28;19925;-80
2022/09/26 05:16:08;;;;;;;;;;;;;;;20.94;58.64;97938.13;2067560;28;19921;-82
2022/09/26 05:17:10;;;;;;;;;;;;;;;20.94;58.63;97935.44;2066780;28;19926;-81
2022/09/26 05:18:10;;;;;;;;;;;;;;;20.94;58.69;97921.94;2067824;28;19922;-79
2022/09/26 05:19:12;;;;;;;;;;;;;;;20.92;58.63;97922.19;2068960;28;19926;-80
2022/09/26 05:20:13;;;;;;;;;;;;;;;20.92;58.63;97924.91;2065269;28;20400;-81
2022/09/26 05:21:14;;;;;;;;;;;;;;;20.92;58.82;97922.19;2064718;28;20327;-79
2022/09/26 05:22:16;;;;;;;;;;;;;;;20.92;58.56;97924.91;2067578;28;20404;-80
2022/09/26 05:26:18;;;;;;;;;;;;;;;20.90;58.97;97918.91;2069780;28;19926;-79
2022/09/26 05:27:20;;;;;;;;;;;;;;;20.92;58.82;97921.34;2076995;28;19928;-81
2022/09/26 05:28:20;;;;;;;;;;;;;;;20.92;58.69;97918.66;2075861;28;20408;-81
2022/09/26 05:29:22;;;;;;;;;;;;;;;20.92;58.95;97918.66;2074945;28;20016;-80
2022/09/26 05:30:30;;;;;;;;;;;;;;;20.94;58.57;97924.66;2074491;28;19921;-81
2022/09/26 05:31:35;;;;;;;;;;;;;;;20.91;58.84;97919.72;2070175;28;20133;-81
2022/09/26 05:32:36;;;;;;;;;;;;;;;20.92;58.50;97915.97;2072582;28;20584;-81
2022/09/26 05:33:38;;;;;;;;;;;;;;;20.92;58.84;97919.50;2071455;28;19985;-82